Broadgate — D5OH5 — position and weather

sailwx.info

Track history (hours):
 
Tides and Currents Weather Stations Pressure Air Temp Water Temp Dewpoint Dewpoint Depression Visibility Wind Speed Wind Dir Waves Ship Positions

Broadgate

Last reported at 2017-Oct-17 21:58 UTC. Time now 2017-Oct-18 11:28 UTC.
Position N 31°46' E 121°03'.

Length 180 m; draft 7.8 m.

Type: Cargo ship. MMSI: 636018128.

Date/timePositionNaut miles runAvg speedWind from/ knotsBaromVisibWave heightAir tempDewpointWater temp
2017-Oct-17 21:58N 31°46' E 121°03'1 0.5
2017-Oct-17 19:59N 31°46' E 121°04'0 0.1
2017-Oct-17 19:29N 31°46' E 121°04'2 3.9
2017-Oct-17 19:00N 31°45' E 121°06'5 9.2
2017-Oct-17 18:30N 31°42' E 121°09'510.2
2017-Oct-17 18:01N 31°39' E 121°14'510.7
2017-Oct-17 17:30N 31°35' E 121°18'510.8
2017-Oct-17 17:00N 31°31' E 121°23'510.0
2017-Oct-17 16:30N 31°28' E 121°28'4 8.5
2017-Oct-17 16:00N 31°25' E 121°31'510.1
2017-Oct-17 15:31N 31°23' E 121°36'510.3
2017-Oct-17 15:01N 31°20' E 121°42'510.7
2017-Oct-17 14:31N 31°16' E 121°46'714.7
2017-Oct-17 14:00N 31°10' E 121°51'714.1
2017-Oct-17 13:30N 31°06' E 121°58'511.0
2017-Oct-17 13:00N 31°04' E 122°04'3 7.0
2017-Oct-17 12:30N 31°03' E 122°08'4 7.6
2017-Oct-17 12:00N 31°03' E 122°12'5 9.9
2017-Oct-17 11:30N 31°02' E 122°18'611.3
2017-Oct-17 11:00N 31°01' E 122°25'710.5
2017-Oct-17 10:20N 30°60' E 122°33'12 0.4
2017-Oct-16 00:58N 31°11' E 122°37'1 2.1
2017-Oct-16 00:22N 31°11' E 122°36'1 2.4
2017-Oct-16 00:00N 31°11' E 122°35'0 0.1
2017-Oct-15 23:24N 31°11' E 122°35'1 1.5
2017-Oct-15 22:58N 31°10' E 122°35'  
Track history (hours):
 
Tides and Currents Weather Stations Pressure Air Temp Water Temp Dewpoint Dewpoint Depression Visibility Wind Speed Wind Dir Waves Ship Positions

Broadgate

Last reported at 2017-Oct-17 21:58 UTC. Time now 2017-Oct-18 11:28 UTC.
Position N 31°46' E 121°03'.

Length 180 m; draft 7.8 m.

Type: Cargo ship. MMSI: 636018128.

Date/timePositionNaut miles runAvg speedWind from/ knotsBaromVisibWave heightAir tempDewpointWater temp
2017-Oct-17 21:58N 31°46' E 121°03'1 0.5
2017-Oct-17 19:59N 31°46' E 121°04'0 0.1
2017-Oct-17 19:29N 31°46' E 121°04'2 3.9
2017-Oct-17 19:00N 31°45' E 121°06'5 9.2
2017-Oct-17 18:30N 31°42' E 121°09'510.2
2017-Oct-17 18:01N 31°39' E 121°14'510.7
2017-Oct-17 17:30N 31°35' E 121°18'510.8
2017-Oct-17 17:00N 31°31' E 121°23'510.0
2017-Oct-17 16:30N 31°28' E 121°28'4 8.5
2017-Oct-17 16:00N 31°25' E 121°31'510.1
2017-Oct-17 15:31N 31°23' E 121°36'510.3
2017-Oct-17 15:01N 31°20' E 121°42'510.7
2017-Oct-17 14:31N 31°16' E 121°46'714.7
2017-Oct-17 14:00N 31°10' E 121°51'714.1
2017-Oct-17 13:30N 31°06' E 121°58'511.0
2017-Oct-17 13:00N 31°04' E 122°04'3 7.0
2017-Oct-17 12:30N 31°03' E 122°08'4 7.6
2017-Oct-17 12:00N 31°03' E 122°12'5 9.9
2017-Oct-17 11:30N 31°02' E 122°18'611.3
2017-Oct-17 11:00N 31°01' E 122°25'710.5
2017-Oct-17 10:20N 30°60' E 122°33'12 0.4
2017-Oct-16 00:58N 31°11' E 122°37'1 2.1
2017-Oct-16 00:22N 31°11' E 122°36'1 2.4
2017-Oct-16 00:00N 31°11' E 122°35'0 0.1
2017-Oct-15 23:24N 31°11' E 122°35'1 1.5
2017-Oct-15 22:58N 31°10' E 122°35'  

Dump ship's entire track history